sensor_id;sensor_type;location;lat;lon;timestamp;P1;durP1;ratioP1;P2;durP2;ratioP2
64571;SDS011;51155;51.984;21.208;2023-01-13T14:27:14;5.80;;;3.80;;
64571;SDS011;51155;51.984;21.208;2023-01-13T14:29:47;7.70;;;4.10;;
64571;SDS011;51155;51.984;21.208;2023-01-13T14:32:20;8.00;;;4.40;;
64571;SDS011;51155;51.984;21.208;2023-01-13T14:34:53;10.00;;;5.30;;
64571;SDS011;51155;51.984;21.208;2023-01-13T14:40:05;12.10;;;5.60;;
64571;SDS011;51155;51.984;21.208;2023-01-13T14:42:37;9.60;;;5.80;;
64571;SDS011;51155;51.984;21.208;2023-01-13T14:45:23;11.80;;;5.90;;
64571;SDS011;51155;51.984;21.208;2023-01-13T14:47:55;8.40;;;4.70;;
64571;SDS011;51155;51.984;21.208;2023-01-13T14:50:28;12.40;;;5.60;;
64571;SDS011;51155;51.984;21.208;2023-01-13T14:53:44;9.90;;;5.00;;
64571;SDS011;51155;51.984;21.208;2023-01-13T15:05:35;8.20;;;4.30;;
64571;SDS011;51155;51.984;21.208;2023-01-13T15:08:21;8.70;;;4.20;;
64571;SDS011;51155;51.984;21.208;2023-01-13T15:11:00;8.70;;;4.20;;
64571;SDS011;51155;51.984;21.208;2023-01-13T15:16:23;13.70;;;4.30;;
64571;SDS011;51155;51.984;21.208;2023-01-13T15:18:56;7.00;;;4.40;;
64571;SDS011;51155;51.984;21.208;2023-01-13T15:21:28;11.80;;;4.40;;
64571;SDS011;51155;51.984;21.208;2023-01-13T15:24:01;9.50;;;4.50;;
64571;SDS011;51155;51.984;21.208;2023-01-13T15:26:33;6.70;;;4.30;;
64571;SDS011;51155;51.984;21.208;2023-01-13T15:31:38;9.30;;;4.30;;
64571;SDS011;51155;51.984;21.208;2023-01-13T15:34:10;7.80;;;4.10;;
64571;SDS011;51155;51.984;21.208;2023-01-13T15:36:42;7.60;;;4.30;;
64571;SDS011;51155;51.984;21.208;2023-01-13T15:39:14;14.20;;;5.60;;
64571;SDS011;51155;51.984;21.208;2023-01-13T15:41:46;8.70;;;5.20;;
64571;SDS011;51155;51.984;21.208;2023-01-13T15:44:36;8.70;;;5.20;;
64571;SDS011;51155;51.984;21.208;2023-01-13T15:47:27;9.70;;;5.00;;
64571;SDS011;51155;51.984;21.208;2023-01-13T15:49:59;12.40;;;5.50;;
64571;SDS011;51155;51.984;21.208;2023-01-13T15:52:31;10.40;;;4.70;;
64571;SDS011;51155;51.984;21.208;2023-01-13T15:55:04;10.50;;;5.20;;
64571;SDS011;51155;51.984;21.208;2023-01-13T15:57:37;8.30;;;5.00;;
64571;SDS011;51155;51.984;21.208;2023-01-13T16:00:15;8.60;;;4.90;;
64571;SDS011;51155;51.984;21.208;2023-01-13T16:02:51;8.10;;;4.40;;
64571;SDS011;51155;51.984;21.208;2023-01-13T16:05:36;8.60;;;4.70;;
64571;SDS011;51155;51.984;21.208;2023-01-13T16:08:15;8.50;;;4.60;;
64571;SDS011;51155;51.984;21.208;2023-01-13T16:10:48;8.20;;;4.90;;
64571;SDS011;51155;51.984;21.208;2023-01-13T16:15:52;9.40;;;4.40;;
64571;SDS011;51155;51.984;21.208;2023-01-13T16:18:24;7.70;;;4.50;;
64571;SDS011;51155;51.984;21.208;2023-01-13T16:20:56;10.90;;;4.50;;
64571;SDS011;51155;51.984;21.208;2023-01-13T16:23:28;9.00;;;4.40;;
64571;SDS011;51155;51.984;21.208;2023-01-13T16:26:04;7.10;;;4.20;;
64571;SDS011;51155;51.984;21.208;2023-01-13T16:28:36;8.80;;;4.50;;
64571;SDS011;51155;51.984;21.208;2023-01-13T16:31:29;6.70;;;4.40;;
64571;SDS011;51155;51.984;21.208;2023-01-13T16:34:03;5.50;;;3.60;;
64571;SDS011;51155;51.984;21.208;2023-01-13T16:36:36;9.20;;;4.50;;
64571;SDS011;51155;51.984;21.208;2023-01-13T16:39:18;5.50;;;4.00;;
64571;SDS011;51155;51.984;21.208;2023-01-13T16:41:52;6.80;;;4.20;;
64571;SDS011;51155;51.984;21.208;2023-01-13T16:44:24;7.90;;;4.30;;
64571;SDS011;51155;51.984;21.208;2023-01-13T16:46:56;8.70;;;4.10;;
64571;SDS011;51155;51.984;21.208;2023-01-13T16:49:28;6.70;;;4.00;;
64571;SDS011;51155;51.984;21.208;2023-01-13T16:52:00;6.90;;;4.00;;
64571;SDS011;51155;51.984;21.208;2023-01-13T16:54:32;6.40;;;4.20;;
64571;SDS011;51155;51.984;21.208;2023-01-13T16:57:04;6.40;;;4.00;;
64571;SDS011;51155;51.984;21.208;2023-01-13T16:59:38;7.00;;;3.80;;
64571;SDS011;51155;51.984;21.208;2023-01-13T17:02:14;6.30;;;4.20;;
64571;SDS011;51155;51.984;21.208;2023-01-13T17:04:46;5.80;;;3.50;;
64571;SDS011;51155;51.984;21.208;2023-01-13T17:07:32;7.90;;;4.00;;
64571;SDS011;51155;51.984;21.208;2023-01-13T17:10:04;7.60;;;4.30;;
64571;SDS011;51155;51.984;21.208;2023-01-13T17:12:37;6.30;;;3.90;;
64571;SDS011;51155;51.984;21.208;2023-01-13T17:15:11;7.20;;;4.20;;
64571;SDS011;51155;51.984;21.208;2023-01-13T17:17:45;6.10;;;4.00;;
64571;SDS011;51155;51.984;21.208;2023-01-13T17:20:19;7.10;;;4.30;;
64571;SDS011;51155;51.984;21.208;2023-01-13T17:22:51;7.50;;;5.30;;
64571;SDS011;51155;51.984;21.208;2023-01-13T17:25:29;9.00;;;4.40;;
64571;SDS011;51155;51.984;21.208;2023-01-13T17:28:01;5.90;;;3.90;;
64571;SDS011;51155;51.984;21.208;2023-01-13T17:30:33;8.30;;;4.30;;
64571;SDS011;51155;51.984;21.208;2023-01-13T17:33:05;9.10;;;4.50;;
64571;SDS011;51155;51.984;21.208;2023-01-13T17:35:38;6.40;;;4.40;;
64571;SDS011;51155;51.984;21.208;2023-01-13T17:38:10;8.00;;;4.70;;
64571;SDS011;51155;51.984;21.208;2023-01-13T17:40:42;9.90;;;5.10;;
64571;SDS011;51155;51.984;21.208;2023-01-13T17:43:14;9.00;;;4.90;;
64571;SDS011;51155;51.984;21.208;2023-01-13T17:45:46;11.60;;;5.40;;
64571;SDS011;51155;51.984;21.208;2023-01-13T17:48:18;11.00;;;6.40;;
64571;SDS011;51155;51.984;21.208;2023-01-13T17:50:51;10.90;;;6.30;;
64571;SDS011;51155;51.984;21.208;2023-01-13T17:53:23;13.90;;;7.20;;
64571;SDS011;51155;51.984;21.208;2023-01-13T17:55:56;12.00;;;6.50;;
64571;SDS011;51155;51.984;21.208;2023-01-13T17:58:28;13.80;;;6.90;;
64571;SDS011;51155;51.984;21.208;2023-01-13T18:01:06;16.60;;;6.60;;
64571;SDS011;51155;51.984;21.208;2023-01-13T18:03:38;13.20;;;6.20;;
64571;SDS011;51155;51.984;21.208;2023-01-13T18:06:15;14.40;;;7.00;;
64571;SDS011;51155;51.984;21.208;2023-01-13T18:08:49;12.10;;;6.40;;
64571;SDS011;51155;51.984;21.208;2023-01-13T18:11:21;12.60;;;6.90;;
64571;SDS011;51155;51.984;21.208;2023-01-13T18:13:53;10.50;;;6.60;;
64571;SDS011;51155;51.984;21.208;2023-01-13T18:16:29;12.50;;;6.20;;
64571;SDS011;51155;51.984;21.208;2023-01-13T18:19:02;12.20;;;6.50;;
64571;SDS011;51155;51.984;21.208;2023-01-13T18:21:52;13.30;;;6.30;;
64571;SDS011;51155;51.984;21.208;2023-01-13T18:24:43;12.90;;;6.40;;
64571;SDS011;51155;51.984;21.208;2023-01-13T18:27:35;14.10;;;6.80;;
64571;SDS011;51155;51.984;21.208;2023-01-13T18:30:09;11.70;;;6.10;;
64571;SDS011;51155;51.984;21.208;2023-01-13T18:32:41;14.70;;;6.40;;
64571;SDS011;51155;51.984;21.208;2023-01-13T18:35:13;13.70;;;7.50;;
64571;SDS011;51155;51.984;21.208;2023-01-13T18:37:45;16.70;;;6.90;;
64571;SDS011;51155;51.984;21.208;2023-01-13T18:40:17;14.20;;;7.20;;
64571;SDS011;51155;51.984;21.208;2023-01-13T18:42:49;14.70;;;7.20;;
64571;SDS011;51155;51.984;21.208;2023-01-13T18:45:27;12.10;;;7.20;;
64571;SDS011;51155;51.984;21.208;2023-01-13T18:48:01;16.60;;;7.40;;
64571;SDS011;51155;51.984;21.208;2023-01-13T18:50:34;17.00;;;7.70;;
64571;SDS011;51155;51.984;21.208;2023-01-13T18:53:06;16.10;;;8.00;;
64571;SDS011;51155;51.984;21.208;2023-01-13T18:55:38;15.80;;;6.90;;
64571;SDS011;51155;51.984;21.208;2023-01-13T18:58:10;13.00;;;6.80;;
64571;SDS011;51155;51.984;21.208;2023-01-13T19:00:43;11.70;;;6.30;;
64571;SDS011;51155;51.984;21.208;2023-01-13T19:03:15;15.80;;;7.10;;
64571;SDS011;51155;51.984;21.208;2023-01-13T19:06:02;13.90;;;6.50;;
64571;SDS011;51155;51.984;21.208;2023-01-13T19:08:35;11.30;;;6.20;;
64571;SDS011;51155;51.984;21.208;2023-01-13T19:11:08;12.50;;;6.90;;
64571;SDS011;51155;51.984;21.208;2023-01-13T19:13:40;13.10;;;6.80;;
64571;SDS011;51155;51.984;21.208;2023-01-13T19:16:12;11.70;;;7.00;;
64571;SDS011;51155;51.984;21.208;2023-01-13T19:18:44;14.30;;;6.80;;
64571;SDS011;51155;51.984;21.208;2023-01-13T19:21:16;16.00;;;7.90;;
64571;SDS011;51155;51.984;21.208;2023-01-13T19:23:48;14.90;;;6.80;;
64571;SDS011;51155;51.984;21.208;2023-01-13T19:26:23;14.40;;;6.80;;
64571;SDS011;51155;51.984;21.208;2023-01-13T19:28:55;13.60;;;6.60;;
64571;SDS011;51155;51.984;21.208;2023-01-13T19:31:27;9.00;;;5.70;;
64571;SDS011;51155;51.984;21.208;2023-01-13T19:33:59;12.10;;;6.60;;
64571;SDS011;51155;51.984;21.208;2023-01-13T19:36:31;12.10;;;6.10;;
64571;SDS011;51155;51.984;21.208;2023-01-13T19:39:03;10.40;;;5.70;;
64571;SDS011;51155;51.984;21.208;2023-01-13T19:41:35;10.60;;;5.90;;
64571;SDS011;51155;51.984;21.208;2023-01-13T19:44:26;10.40;;;6.10;;
64571;SDS011;51155;51.984;21.208;2023-01-13T19:47:17;9.70;;;6.00;;
64571;SDS011;51155;51.984;21.208;2023-01-13T19:52:22;11.30;;;5.70;;
64571;SDS011;51155;51.984;21.208;2023-01-13T19:54:54;10.10;;;6.10;;
64571;SDS011;51155;51.984;21.208;2023-01-13T19:57:27;10.80;;;5.60;;
64571;SDS011;51155;51.984;21.208;2023-01-13T19:59:59;10.50;;;6.20;;
64571;SDS011;51155;51.984;21.208;2023-01-13T20:02:31;9.40;;;5.60;;
64571;SDS011;51155;51.984;21.208;2023-01-13T20:05:03;11.80;;;5.80;;
64571;SDS011;51155;51.984;21.208;2023-01-13T20:07:38;11.30;;;6.30;;
64571;SDS011;51155;51.984;21.208;2023-01-13T20:10:10;9.10;;;5.60;;
64571;SDS011;51155;51.984;21.208;2023-01-13T20:12:43;11.30;;;6.10;;
64571;SDS011;51155;51.984;21.208;2023-01-13T20:15:16;11.00;;;5.70;;
64571;SDS011;51155;51.984;21.208;2023-01-13T20:17:47;9.90;;;5.60;;
64571;SDS011;51155;51.984;21.208;2023-01-13T20:20:23;9.30;;;4.80;;
64571;SDS011;51155;51.984;21.208;2023-01-13T20:22:56;8.70;;;5.50;;
64571;SDS011;51155;51.984;21.208;2023-01-13T20:25:31;8.80;;;5.30;;
64571;SDS011;51155;51.984;21.208;2023-01-13T20:28:03;9.40;;;5.30;;
64571;SDS011;51155;51.984;21.208;2023-01-13T20:30:38;9.80;;;5.30;;
64571;SDS011;51155;51.984;21.208;2023-01-13T20:33:10;9.70;;;6.10;;
64571;SDS011;51155;51.984;21.208;2023-01-13T20:35:42;11.10;;;5.70;;
64571;SDS011;51155;51.984;21.208;2023-01-13T20:38:15;9.30;;;5.30;;
64571;SDS011;51155;51.984;21.208;2023-01-13T20:40:57;10.70;;;5.30;;
64571;SDS011;51155;51.984;21.208;2023-01-13T20:43:29;11.80;;;5.80;;
64571;SDS011;51155;51.984;21.208;2023-01-13T20:46:02;8.30;;;5.00;;
64571;SDS011;51155;51.984;21.208;2023-01-13T20:48:34;12.30;;;5.00;;
64571;SDS011;51155;51.984;21.208;2023-01-13T20:51:06;11.30;;;5.40;;
64571;SDS011;51155;51.984;21.208;2023-01-13T20:53:38;12.50;;;6.20;;
64571;SDS011;51155;51.984;21.208;2023-01-13T20:56:10;8.50;;;5.10;;
64571;SDS011;51155;51.984;21.208;2023-01-13T20:58:45;8.80;;;5.10;;
64571;SDS011;51155;51.984;21.208;2023-01-13T21:01:16;11.20;;;5.50;;
64571;SDS011;51155;51.984;21.208;2023-01-13T21:03:49;9.30;;;5.50;;
64571;SDS011;51155;51.984;21.208;2023-01-13T21:06:21;8.80;;;5.60;;
64571;SDS011;51155;51.984;21.208;2023-01-13T21:08:53;9.80;;;5.20;;
64571;SDS011;51155;51.984;21.208;2023-01-13T21:11:26;9.90;;;5.30;;
64571;SDS011;51155;51.984;21.208;2023-01-13T21:14:20;8.60;;;5.10;;
64571;SDS011;51155;51.984;21.208;2023-01-13T21:17:13;7.80;;;5.20;;
64571;SDS011;51155;51.984;21.208;2023-01-13T21:20:10;8.90;;;4.90;;
64571;SDS011;51155;51.984;21.208;2023-01-13T21:22:46;10.10;;;5.20;;
64571;SDS011;51155;51.984;21.208;2023-01-13T21:25:19;9.80;;;5.40;;
64571;SDS011;51155;51.984;21.208;2023-01-13T21:27:54;8.30;;;4.60;;
64571;SDS011;51155;51.984;21.208;2023-01-13T21:30:29;10.50;;;5.30;;
64571;SDS011;51155;51.984;21.208;2023-01-13T21:33:01;8.20;;;5.00;;
64571;SDS011;51155;51.984;21.208;2023-01-13T21:35:37;13.60;;;4.40;;
64571;SDS011;51155;51.984;21.208;2023-01-13T21:38:10;8.00;;;4.60;;
64571;SDS011;51155;51.984;21.208;2023-01-13T21:40:42;9.40;;;4.70;;
64571;SDS011;51155;51.984;21.208;2023-01-13T21:43:14;7.90;;;4.40;;
64571;SDS011;51155;51.984;21.208;2023-01-13T21:46:13;7.20;;;4.20;;
64571;SDS011;51155;51.984;21.208;2023-01-13T21:49:04;8.80;;;4.90;;
64571;SDS011;51155;51.984;21.208;2023-01-13T21:51:36;8.00;;;4.70;;
64571;SDS011;51155;51.984;21.208;2023-01-13T21:54:08;10.00;;;4.90;;
64571;SDS011;51155;51.984;21.208;2023-01-13T21:56:40;7.20;;;5.30;;
64571;SDS011;51155;51.984;21.208;2023-01-13T21:59:11;6.20;;;4.20;;
64571;SDS011;51155;51.984;21.208;2023-01-13T22:01:43;7.90;;;4.60;;
64571;SDS011;51155;51.984;21.208;2023-01-13T22:04:35;8.30;;;4.30;;
64571;SDS011;51155;51.984;21.208;2023-01-13T22:07:07;7.30;;;4.50;;
64571;SDS011;51155;51.984;21.208;2023-01-13T22:09:39;7.50;;;4.30;;
64571;SDS011;51155;51.984;21.208;2023-01-13T22:12:11;8.20;;;4.60;;
64571;SDS011;51155;51.984;21.208;2023-01-13T22:14:43;9.30;;;4.50;;
64571;SDS011;51155;51.984;21.208;2023-01-13T22:17:16;8.60;;;4.60;;
64571;SDS011;51155;51.984;21.208;2023-01-13T22:19:50;6.90;;;4.60;;
64571;SDS011;51155;51.984;21.208;2023-01-13T22:22:24;9.10;;;4.40;;
64571;SDS011;51155;51.984;21.208;2023-01-13T22:24:56;11.30;;;4.80;;
64571;SDS011;51155;51.984;21.208;2023-01-13T22:27:28;12.70;;;5.10;;
64571;SDS011;51155;51.984;21.208;2023-01-13T22:30:01;10.70;;;4.60;;
64571;SDS011;51155;51.984;21.208;2023-01-13T22:32:35;9.20;;;4.60;;
64571;SDS011;51155;51.984;21.208;2023-01-13T22:35:09;12.10;;;4.80;;
64571;SDS011;51155;51.984;21.208;2023-01-13T22:37:42;10.30;;;4.80;;
64571;SDS011;51155;51.984;21.208;2023-01-13T22:40:14;12.60;;;5.10;;
64571;SDS011;51155;51.984;21.208;2023-01-13T22:42:46;12.20;;;4.80;;
64571;SDS011;51155;51.984;21.208;2023-01-13T22:45:18;10.70;;;4.80;;
64571;SDS011;51155;51.984;21.208;2023-01-13T22:47:49;11.10;;;4.90;;
64571;SDS011;51155;51.984;21.208;2023-01-13T22:50:21;9.80;;;4.40;;
64571;SDS011;51155;51.984;21.208;2023-01-13T22:52:54;11.30;;;4.90;;
64571;SDS011;51155;51.984;21.208;2023-01-13T22:55:25;9.40;;;4.70;;
64571;SDS011;51155;51.984;21.208;2023-01-13T22:57:57;11.40;;;4.70;;
64571;SDS011;51155;51.984;21.208;2023-01-13T23:00:29;7.80;;;4.20;;
64571;SDS011;51155;51.984;21.208;2023-01-13T23:03:03;12.00;;;4.40;;
64571;SDS011;51155;51.984;21.208;2023-01-13T23:05:35;8.50;;;4.70;;
64571;SDS011;51155;51.984;21.208;2023-01-13T23:08:08;8.70;;;4.70;;
64571;SDS011;51155;51.984;21.208;2023-01-13T23:10:40;8.20;;;4.40;;
64571;SDS011;51155;51.984;21.208;2023-01-13T23:13:12;9.60;;;4.50;;
64571;SDS011;51155;51.984;21.208;2023-01-13T23:15:44;8.50;;;4.10;;
64571;SDS011;51155;51.984;21.208;2023-01-13T23:18:16;10.40;;;4.60;;
64571;SDS011;51155;51.984;21.208;2023-01-13T23:20:48;8.80;;;4.20;;
64571;SDS011;51155;51.984;21.208;2023-01-13T23:23:20;10.30;;;4.50;;
64571;SDS011;51155;51.984;21.208;2023-01-13T23:25:54;7.10;;;4.00;;
64571;SDS011;51155;51.984;21.208;2023-01-13T23:28:27;7.00;;;4.10;;
64571;SDS011;51155;51.984;21.208;2023-01-13T23:30:59;7.60;;;3.90;;
64571;SDS011;51155;51.984;21.208;2023-01-13T23:33:36;6.00;;;3.60;;
64571;SDS011;51155;51.984;21.208;2023-01-13T23:36:17;7.20;;;3.90;;
64571;SDS011;51155;51.984;21.208;2023-01-13T23:38:50;7.50;;;4.30;;
64571;SDS011;51155;51.984;21.208;2023-01-13T23:41:23;6.80;;;3.70;;
64571;SDS011;51155;51.984;21.208;2023-01-13T23:43:57;8.00;;;4.20;;
64571;SDS011;51155;51.984;21.208;2023-01-13T23:46:30;7.80;;;4.20;;
64571;SDS011;51155;51.984;21.208;2023-01-13T23:49:03;7.10;;;3.70;;
64571;SDS011;51155;51.984;21.208;2023-01-13T23:51:35;8.60;;;3.70;;
64571;SDS011;51155;51.984;21.208;2023-01-13T23:54:07;7.80;;;4.10;;
64571;SDS011;51155;51.984;21.208;2023-01-13T23:56:39;7.30;;;4.30;;
64571;SDS011;51155;51.984;21.208;2023-01-13T23:59:11;5.90;;;3.90;;
